Time;durP1;ratioP1;P1;durP2;ratioP2;P2;SDS_P1;SDS_P2;PMS_P1;PMS_P2;Temp;Humidity;BMP_temperature;BMP_pressure;BME280_temperature;BME280_humidity;BME280_pressure;Samples;Min_cycle;Max_cycle;Signal;HPM_P1;HPM_P2
2023/01/23 00:00:30;;;;;;;14.07;4.30;;;2.00;99.90;;;;;;5021549;28;20405;-73
2023/01/23 00:02:56;;;;;;;9.90;3.78;;;2.00;99.90;;;;;;5020555;28;20034;-73
2023/01/23 00:05:22;;;;;;;13.47;4.63;;;2.10;99.90;;;;;;5021989;28;20046;-73
2023/01/23 00:07:48;;;;;;;12.97;4.37;;;2.10;99.90;;;;;;5006893;28;20053;-73
2023/01/23 00:10:14;;;;;;;15.30;4.90;;;2.10;99.90;;;;;;5022276;28;20105;-73
2023/01/23 00:12:44;;;;;;;8.43;4.53;;;2.00;99.90;;;;;;4997926;28;20043;-73
2023/01/23 00:15:11;;;;;;;10.35;4.25;;;2.00;99.90;;;;;;5022858;28;20357;-73
2023/01/23 00:17:40;;;;;;;14.85;4.60;;;2.00;99.90;;;;;;4989861;28;20033;-73
2023/01/23 00:20:07;;;;;;;16.45;4.30;;;2.00;99.90;;;;;;5006466;28;20131;-73
2023/01/23 00:22:32;;;;;;;12.25;3.78;;;2.00;99.90;;;;;;5003611;28;20061;-73
2023/01/23 00:24:58;;;;;;;12.73;4.17;;;2.00;99.90;;;;;;4988376;28;20509;-73
2023/01/23 00:27:24;;;;;;;11.27;3.93;;;2.00;99.90;;;;;;5005959;28;20056;-73
2023/01/23 00:29:52;;;;;;;8.77;4.03;;;2.00;99.90;;;;;;5015215;28;20141;-73
2023/01/23 00:32:17;;;;;;;13.43;4.20;;;2.00;99.90;;;;;;5006161;28;20112;-73
2023/01/23 00:34:45;;;;;;;10.13;3.90;;;2.00;99.90;;;;;;5022719;28;20046;-73
2023/01/23 00:37:10;;;;;;;12.68;4.63;;;2.00;99.90;;;;;;5005667;28;20049;-73
2023/01/23 00:39:36;;;;;;;8.70;3.90;;;2.00;99.90;;;;;;4990410;28;20034;-73
2023/01/23 00:42:02;;;;;;;14.53;4.37;;;2.00;99.90;;;;;;5003531;28;20029;-73
2023/01/23 00:44:29;;;;;;;10.80;4.20;;;2.00;99.90;;;;;;5002617;28;20096;-73
2023/01/23 00:46:56;;;;;;;11.95;4.57;;;2.00;99.90;;;;;;5021842;28;20204;-73
2023/01/23 00:49:22;;;;;;;11.32;4.43;;;2.00;99.90;;;;;;5000865;28;20038;-73
2023/01/23 00:51:49;;;;;;;13.32;4.22;;;2.00;99.90;;;;;;4989097;28;20063;-73
2023/01/23 00:54:16;;;;;;;11.25;4.30;;;2.00;99.90;;;;;;5021456;28;20045;-73
2023/01/23 00:56:42;;;;;;;12.43;4.88;;;2.00;99.90;;;;;;5004968;28;20084;-73
2023/01/23 00:59:08;;;;;;;10.98;4.35;;;2.00;99.90;;;;;;5001124;28;20039;-73
2023/01/23 01:01:34;;;;;;;12.10;4.43;;;2.00;99.90;;;;;;5004925;28;20814;-73
2023/01/23 01:04:00;;;;;;;13.27;4.50;;;2.00;99.90;;;;;;5006606;28;20038;-73
2023/01/23 01:06:27;;;;;;;9.73;4.32;;;2.00;99.90;;;;;;5022971;28;20112;-73
2023/01/23 01:08:53;;;;;;;19.63;5.10;;;2.00;99.90;;;;;;5006964;28;20363;-73
2023/01/23 01:11:19;;;;;;;9.67;4.37;;;2.00;99.90;;;;;;4990503;28;20049;-74
2023/01/23 01:13:44;;;;;;;12.67;4.50;;;2.00;99.90;;;;;;5006893;28;20038;-74
2023/01/23 01:16:10;;;;;;;12.30;4.17;;;2.00;99.90;;;;;;5009614;28;20520;-73
2023/01/23 01:18:36;;;;;;;10.33;4.10;;;2.00;99.90;;;;;;5023746;28;20034;-73
2023/01/23 01:21:08;;;;;;;9.93;4.00;;;1.90;99.90;;;;;;4989899;28;20462;-73
2023/01/23 01:23:34;;;;;;;10.32;4.20;;;2.00;99.90;;;;;;5022334;28;20065;-73
2023/01/23 01:26:00;;;;;;;12.93;4.13;;;2.00;99.90;;;;;;5021013;28;20533;-73
2023/01/23 01:28:29;;;;;;;10.40;3.83;;;2.00;99.90;;;;;;5015434;28;20045;-73
2023/01/23 01:30:56;;;;;;;9.73;4.43;;;2.00;99.90;;;;;;5018798;28;20362;-73
2023/01/23 01:33:23;;;;;;;13.93;4.82;;;1.90;99.90;;;;;;4988067;28;20806;-73
2023/01/23 01:35:49;;;;;;;10.70;4.32;;;1.90;99.90;;;;;;5021770;28;20045;-73
2023/01/23 01:38:14;;;;;;;10.73;4.20;;;1.90;99.90;;;;;;5003545;28;20062;-73
2023/01/23 01:40:40;;;;;;;10.03;4.37;;;1.90;99.90;;;;;;5020472;28;20525;-73
2023/01/23 01:43:16;;;;;;;11.38;4.60;;;1.90;99.90;;;;;;5020245;28;20081;-74
2023/01/23 01:46:00;;;;;;;;;;;1.90;99.90;;;;;;5019829;28;20061;-73
2023/01/23 01:48:34;;;;;;;8.65;4.47;;;1.90;99.90;;;;;;5005109;28;19944;-73
2023/01/23 01:51:01;;;;;;;12.07;5.13;;;1.90;99.90;;;;;;5005129;28;20052;-73
2023/01/23 01:53:30;;;;;;;10.30;5.10;;;1.90;99.90;;;;;;5005073;28;20525;-73
2023/01/23 01:55:56;;;;;;;12.50;5.13;;;1.90;99.90;;;;;;5021750;28;20049;-73
2023/01/23 01:58:22;;;;;;;15.63;5.18;;;1.90;99.90;;;;;;5018316;28;20044;-73
2023/01/23 02:00:47;;;;;;;12.90;5.10;;;1.90;99.90;;;;;;5021321;28;20061;-73
2023/01/23 02:03:15;;;;;;;10.13;4.70;;;1.90;99.90;;;;;;5021744;28;20409;-73
2023/01/23 02:05:47;;;;;;;12.07;4.75;;;1.90;99.90;;;;;;5003041;28;20049;-73
2023/01/23 02:08:28;;;;;;;10.98;4.88;;;1.90;99.90;;;;;;5020830;28;20374;-73
2023/01/23 02:10:55;;;;;;;12.70;5.03;;;1.90;99.90;;;;;;5021445;28;20050;-73
2023/01/23 02:13:35;;;;;;;11.80;4.80;;;1.90;99.90;;;;;;5021087;28;20085;-73
2023/01/23 02:16:39;;;;;;;9.32;5.43;;;1.90;99.90;;;;;;5005476;28;20045;-73
2023/01/23 02:19:23;;;;;;;15.98;5.80;;;1.90;99.90;;;;;;4994443;28;20156;-73
2023/01/23 02:21:56;;;;;;;10.98;5.35;;;1.90;99.90;;;;;;5003169;28;20052;-73
2023/01/23 02:24:35;;;;;;;10.13;5.13;;;1.90;99.90;;;;;;5021249;28;20105;-73
2023/01/23 02:27:02;;;;;;;12.73;5.95;;;1.90;99.90;;;;;;4998998;28;20069;-73
2023/01/23 02:29:39;;;;;;;11.45;5.90;;;1.90;99.90;;;;;;5002320;28;20045;-73
2023/01/23 02:32:05;;;;;;;12.05;5.55;;;1.90;99.90;;;;;;5020294;28;20042;-73
2023/01/23 02:34:31;;;;;;;11.73;5.80;;;1.90;99.90;;;;;;5020917;28;20049;-73
2023/01/23 02:36:56;;;;;;;13.93;6.17;;;1.90;99.90;;;;;;5005069;28;20100;-73
2023/01/23 02:39:22;;;;;;;16.13;7.20;;;1.90;99.90;;;;;;4989513;28;20096;-73
2023/01/23 02:41:50;;;;;;;12.87;6.00;;;1.90;99.90;;;;;;5004764;28;20413;-73
2023/01/23 02:44:16;;;;;;;12.30;5.78;;;1.90;99.90;;;;;;5020945;28;20050;-74
2023/01/23 02:46:42;;;;;;;13.43;6.13;;;1.80;99.90;;;;;;5004218;28;20123;-74
2023/01/23 02:49:07;;;;;;;11.43;5.77;;;1.80;99.90;;;;;;5004733;28;20042;-74
2023/01/23 02:51:36;;;;;;;11.47;6.60;;;1.80;99.90;;;;;;4988360;28;20452;-73
2023/01/23 02:54:02;;;;;;;12.68;6.00;;;1.80;99.90;;;;;;5017668;28;20097;-73
2023/01/23 02:56:28;;;;;;;11.90;5.80;;;1.80;99.90;;;;;;5000198;28;20073;-73
2023/01/23 03:01:38;;;;;;;11.70;5.97;;;1.80;99.90;;;;;;5022169;28;20053;-73
2023/01/23 03:04:05;;;;;;;11.37;5.77;;;1.80;99.90;;;;;;4998634;28;20077;-73
2023/01/23 03:06:36;;;;;;;9.63;6.00;;;1.80;99.90;;;;;;5004854;28;20113;-73
2023/01/23 03:09:10;;;;;;;12.35;6.60;;;1.80;99.90;;;;;;5000850;28;20057;-73
2023/01/23 03:11:38;;;;;;;12.55;6.35;;;1.80;99.90;;;;;;5021090;28;20048;-73
2023/01/23 03:14:07;;;;;;;11.95;6.63;;;1.80;99.90;;;;;;5021480;28;20466;-73
2023/01/23 03:16:33;;;;;;;11.70;6.68;;;1.80;99.90;;;;;;5004874;28;20387;-73
2023/01/23 03:19:04;;;;;;;17.23;7.45;;;1.80;99.90;;;;;;5022090;28;20045;-73
2023/01/23 03:21:34;;;;;;;14.23;6.72;;;1.80;99.90;;;;;;5005803;28;20275;-73
2023/01/23 03:24:01;;;;;;;11.55;7.40;;;1.80;99.90;;;;;;5018325;28;20152;-73
2023/01/23 03:26:28;;;;;;;13.82;7.07;;;1.80;99.90;;;;;;5019261;28;20426;-73
2023/01/23 03:31:38;;;;;;;17.63;8.20;;;1.80;99.90;;;;;;5037401;28;20050;-73
2023/01/23 03:34:04;;;;;;;11.07;7.23;;;1.80;99.90;;;;;;5020425;28;20042;-73
2023/01/23 03:36:30;;;;;;;11.63;7.55;;;1.80;99.90;;;;;;5003923;28;20045;-73
2023/01/23 03:41:40;;;;;;;18.02;7.72;;;1.80;99.90;;;;;;5020887;28;20049;-73
2023/01/23 03:44:08;;;;;;;16.35;8.07;;;1.80;99.90;;;;;;5004525;28;20080;-73
2023/01/23 03:46:34;;;;;;;14.70;7.53;;;1.80;99.90;;;;;;5004295;28;20098;-73
2023/01/23 03:49:00;;;;;;;14.68;7.60;;;1.80;99.90;;;;;;4989680;28;20351;-74
2023/01/23 03:51:25;;;;;;;13.03;7.67;;;1.80;99.90;;;;;;5020870;28;20084;-74
2023/01/23 03:53:51;;;;;;;13.00;6.90;;;1.80;99.90;;;;;;5020551;28;20050;-74
2023/01/23 03:56:17;;;;;;;15.47;7.17;;;1.80;99.90;;;;;;5002894;28;20065;-74
2023/01/23 03:58:42;;;;;;;12.07;7.13;;;1.80;99.90;;;;;;5020673;28;20102;-74
2023/01/23 04:01:08;;;;;;;11.93;6.87;;;1.70;99.90;;;;;;4988694;28;20042;-74
2023/01/23 04:03:34;;;;;;;12.55;6.88;;;1.80;99.90;;;;;;5020801;28;20407;-74
2023/01/23 04:06:01;;;;;;;12.40;7.80;;;1.70;99.90;;;;;;4988626;28;20042;-74
2023/01/23 04:08:28;;;;;;;12.40;7.25;;;1.70;99.90;;;;;;4997711;28;20347;-74
2023/01/23 04:11:05;;;;;;;11.10;6.50;;;1.70;99.90;;;;;;5003786;28;20077;-74
2023/01/23 04:13:31;;;;;;;17.88;7.43;;;1.70;99.90;;;;;;5019698;28;20107;-74
2023/01/23 04:15:58;;;;;;;14.33;6.43;;;1.70;99.90;;;;;;5003657;28;20437;-74
2023/01/23 04:18:24;;;;;;;12.45;6.28;;;1.70;99.90;;;;;;5002997;28;20371;-74
2023/01/23 04:20:49;;;;;;;13.47;6.47;;;1.70;99.90;;;;;;5022572;28;20118;-74
2023/01/23 04:23:15;;;;;;;11.20;6.90;;;1.70;99.90;;;;;;5005468;28;20044;-74
2023/01/23 04:25:41;;;;;;;12.67;6.67;;;1.70;99.90;;;;;;5022657;28;20049;-73
2023/01/23 04:28:07;;;;;;;15.73;7.40;;;1.70;99.90;;;;;;5007146;28;20292;-73
2023/01/23 04:30:32;;;;;;;13.50;6.77;;;1.70;99.90;;;;;;5022408;28;20046;-73
2023/01/23 04:32:58;;;;;;;13.57;6.97;;;1.70;99.90;;;;;;5006417;28;20394;-73
2023/01/23 04:35:24;;;;;;;10.47;6.43;;;1.60;99.90;;;;;;5004127;28;20042;-73
2023/01/23 04:37:50;;;;;;;13.63;6.50;;;1.60;99.90;;;;;;4999816;28;20057;-73
2023/01/23 04:40:16;;;;;;;12.40;6.53;;;1.60;99.90;;;;;;5005750;28;20073;-73
2023/01/23 04:42:42;;;;;;;14.00;7.15;;;1.70;99.90;;;;;;5017974;28;20041;-73
2023/01/23 04:45:09;;;;;;;13.67;6.73;;;1.60;99.90;;;;;;4990107;28;20110;-73
2023/01/23 04:47:34;;;;;;;14.20;7.35;;;1.70;99.90;;;;;;5022362;28;20041;-73
2023/01/23 04:50:00;;;;;;;10.43;6.60;;;1.60;99.90;;;;;;5005699;28;20128;-73
2023/01/23 04:52:26;;;;;;;13.73;6.73;;;1.60;99.90;;;;;;4989560;28;20038;-73
2023/01/23 04:54:52;;;;;;;14.38;6.13;;;1.60;99.90;;;;;;5007318;28;20034;-73
2023/01/23 04:57:18;;;;;;;14.13;6.20;;;1.60;99.90;;;;;;4991034;28;20034;-73
2023/01/23 04:59:44;;;;;;;12.27;6.35;;;1.60;99.90;;;;;;5023488;28;20042;-73
2023/01/23 05:02:10;;;;;;;13.50;6.07;;;1.70;99.90;;;;;;5006596;28;20049;-73
2023/01/23 05:04:35;;;;;;;12.50;5.93;;;1.70;99.90;;;;;;5022513;28;20468;-73
2023/01/23 05:07:01;;;;;;;11.60;5.67;;;1.70;99.90;;;;;;5004887;28;20053;-73
2023/01/23 05:09:27;;;;;;;14.90;6.60;;;1.70;99.90;;;;;;5006897;28;20045;-73
2023/01/23 05:11:52;;;;;;;13.50;6.67;;;1.60;99.90;;;;;;5023577;28;20057;-73
2023/01/23 05:14:18;;;;;;;14.20;6.93;;;1.60;99.90;;;;;;5000651;28;20068;-73
2023/01/23 05:16:44;;;;;;;16.00;6.93;;;1.60;99.90;;;;;;5005190;28;20060;-73
2023/01/23 05:19:10;;;;;;;10.83;6.33;;;1.60;99.90;;;;;;4986538;28;20035;-73
2023/01/23 05:21:35;;;;;;;10.80;6.63;;;1.60;99.90;;;;;;5003842;28;20065;-73
2023/01/23 05:24:01;;;;;;;10.73;6.00;;;1.60;99.90;;;;;;5023101;28;20494;-73
2023/01/23 05:26:27;;;;;;;13.63;6.63;;;1.60;99.90;;;;;;4989751;28;20053;-73
2023/01/23 05:28:52;;;;;;;12.30;6.60;;;1.60;99.90;;;;;;5022080;28;20050;-73
2023/01/23 05:31:18;;;;;;;11.13;6.53;;;1.60;99.90;;;;;;5005155;28;20042;-73
2023/01/23 05:33:44;;;;;;;11.70;6.20;;;1.60;99.90;;;;;;4988511;28;20041;-73
2023/01/23 05:36:10;;;;;;;11.67;7.03;;;1.60;99.90;;;;;;5004813;28;20556;-73
2023/01/23 05:38:35;;;;;;;11.77;6.03;;;1.60;99.90;;;;;;5005553;28;20038;-73
2023/01/23 05:41:04;;;;;;;12.67;6.50;;;1.60;99.90;;;;;;5003963;28;20069;-73
2023/01/23 05:43:30;;;;;;;14.93;6.80;;;1.60;99.90;;;;;;5021351;28;20097;-73
2023/01/23 05:46:00;;;;;;;14.30;7.30;;;1.60;99.90;;;;;;5017756;28;20433;-73
2023/01/23 05:48:26;;;;;;;12.32;6.43;;;1.60;99.90;;;;;;5014650;28;20041;-73
2023/01/23 05:50:51;;;;;;;13.53;6.50;;;1.60;99.90;;;;;;5005145;28;20060;-73
2023/01/23 05:53:17;;;;;;;11.43;6.37;;;1.60;99.90;;;;;;5003768;28;20428;-73
2023/01/23 05:55:43;;;;;;;10.20;6.53;;;1.60;99.90;;;;;;5020233;28;20038;-73
2023/01/23 05:58:08;;;;;;;12.37;6.97;;;1.60;99.90;;;;;;5016243;28;20065;-73
2023/01/23 06:00:35;;;;;;;12.43;6.33;;;1.60;99.90;;;;;;5005986;28;20049;-73
2023/01/23 06:03:01;;;;;;;12.00;6.72;;;1.60;99.90;;;;;;4994975;28;20048;-73
2023/01/23 06:05:27;;;;;;;10.70;6.57;;;1.60;99.90;;;;;;5017534;28;20124;-73
2023/01/23 06:07:53;;;;;;;14.80;7.20;;;1.60;99.90;;;;;;5014944;28;20292;-73
2023/01/23 06:10:18;;;;;;;19.13;7.33;;;1.70;99.90;;;;;;5015893;28;20034;-73
2023/01/23 06:12:44;;;;;;;13.53;7.30;;;1.70;99.90;;;;;;5015935;28;20274;-73
2023/01/23 06:15:10;;;;;;;13.30;7.03;;;1.60;99.90;;;;;;5016079;28;20038;-73
2023/01/23 06:17:36;;;;;;;14.82;7.78;;;1.60;99.90;;;;;;5004606;28;20044;-73
2023/01/23 06:20:03;;;;;;;14.77;7.53;;;1.70;99.90;;;;;;5020183;28;20034;-73
2023/01/23 06:22:28;;;;;;;14.40;8.40;;;1.60;99.90;;;;;;5021196;28;20133;-73
2023/01/23 06:24:54;;;;;;;14.83;7.93;;;1.70;99.90;;;;;;5017282;28;20066;-73
2023/01/23 06:27:20;;;;;;;13.77;7.60;;;1.70;99.90;;;;;;5021608;28;20107;-73
2023/01/23 06:29:45;;;;;;;14.23;7.90;;;1.70;99.90;;;;;;4989533;28;20042;-73
2023/01/23 06:32:11;;;;;;;11.73;7.07;;;1.70;99.90;;;;;;5017710;28;20080;-73
2023/01/23 06:34:37;;;;;;;17.97;8.23;;;1.70;99.90;;;;;;5001909;28;20486;-73
2023/01/23 06:37:03;;;;;;;16.53;9.03;;;1.70;99.90;;;;;;5003954;28;20038;-73
2023/01/23 06:39:29;;;;;;;15.77;8.80;;;1.60;99.90;;;;;;5003830;28;20056;-73
2023/01/23 06:41:55;;;;;;;16.70;8.70;;;1.60;99.90;;;;;;4985931;28;20042;-73
2023/01/23 06:44:21;;;;;;;15.20;8.82;;;1.60;99.90;;;;;;5001901;28;20411;-73
2023/01/23 06:46:47;;;;;;;14.75;8.65;;;1.60;99.90;;;;;;4982257;28;20418;-73
2023/01/23 06:49:13;;;;;;;13.10;7.93;;;1.60;99.90;;;;;;5015632;28;20104;-73
2023/01/23 06:51:39;;;;;;;17.90;8.47;;;1.60;99.90;;;;;;5000495;28;20034;-73
2023/01/23 06:54:05;;;;;;;14.00;8.07;;;1.60;99.90;;;;;;4982574;28;20050;-73
2023/01/23 06:56:30;;;;;;;16.33;8.83;;;1.60;99.90;;;;;;4998780;28;20048;-73
2023/01/23 06:58:56;;;;;;;13.70;8.57;;;1.50;99.90;;;;;;5015368;28;20034;-73
2023/01/23 07:01:22;;;;;;;16.58;9.18;;;1.50;99.90;;;;;;4982999;28;20041;-73
2023/01/23 07:03:48;;;;;;;21.55;9.02;;;1.50;99.90;;;;;;4982173;28;20042;-73
2023/01/23 07:06:15;;;;;;;18.47;9.17;;;1.40;99.90;;;;;;4983009;28;20062;-73
2023/01/23 07:08:41;;;;;;;16.63;8.15;;;1.30;99.90;;;;;;5016486;28;20116;-73
2023/01/23 07:11:07;;;;;;;16.08;9.10;;;1.30;99.90;;;;;;5000053;28;20048;-73
2023/01/23 07:13:33;;;;;;;16.40;8.57;;;1.20;99.90;;;;;;4999094;28;20042;-72
2023/01/23 07:15:59;;;;;;;18.27;9.43;;;1.20;99.90;;;;;;4982748;28;20520;-73
2023/01/23 07:18:27;;;;;;;20.25;10.43;;;1.10;99.90;;;;;;4988632;28;20469;-73
2023/01/23 07:20:53;;;;;;;20.65;10.30;;;1.10;99.90;;;;;;4994361;28;20057;-73
2023/01/23 07:23:20;;;;;;;19.73;10.38;;;1.00;99.90;;;;;;4996862;28;20057;-73
2023/01/23 07:25:45;;;;;;;24.20;10.35;;;1.00;99.90;;;;;;4998849;28;20038;-73
2023/01/23 07:28:11;;;;;;;23.77;11.00;;;1.00;99.90;;;;;;4981753;28;20046;-73
2023/01/23 07:30:37;;;;;;;18.13;10.10;;;1.00;99.90;;;;;;4982819;28;20041;-73
2023/01/23 07:33:04;;;;;;;22.97;11.30;;;1.00;99.90;;;;;;4998454;28;20042;-73
2023/01/23 07:35:30;;;;;;;17.40;10.23;;;1.00;99.90;;;;;;4992883;28;20064;-73
2023/01/23 07:37:56;;;;;;;19.10;10.43;;;1.00;99.90;;;;;;5016195;28;20042;-73
2023/01/23 07:40:22;;;;;;;23.55;10.50;;;1.00;99.90;;;;;;4995932;28;20292;-73
2023/01/23 07:42:47;;;;;;;21.53;10.10;;;1.00;99.90;;;;;;5013931;28;20048;-73
2023/01/23 07:45:13;;;;;;;21.13;10.80;;;1.00;99.90;;;;;;5016554;28;20398;-73
2023/01/23 07:47:39;;;;;;;20.33;10.03;;;1.10;99.90;;;;;;5015811;28;20049;-73
2023/01/23 07:50:10;;;;;;;20.33;10.68;;;1.10;99.90;;;;;;4980085;28;20042;-73
2023/01/23 07:52:36;;;;;;;20.73;10.20;;;1.10;99.90;;;;;;5014898;28;20042;-73
2023/01/23 07:55:03;;;;;;;17.95;10.57;;;1.20;99.90;;;;;;5019895;28;20119;-73
2023/01/23 07:57:28;;;;;;;21.52;10.50;;;1.20;99.90;;;;;;5002012;28;20149;-73
2023/01/23 07:59:54;;;;;;;20.93;10.37;;;1.30;99.90;;;;;;5018662;28;20065;-71
2023/01/23 08:02:20;;;;;;;20.57;10.87;;;1.30;99.90;;;;;;5000568;28;20041;-71
2023/01/23 08:04:46;;;;;;;19.37;11.10;;;1.30;99.90;;;;;;5006279;28;20042;-71
2023/01/23 08:07:11;;;;;;;20.70;11.57;;;1.30;99.90;;;;;;4991465;28;20071;-71
2023/01/23 08:09:37;;;;;;;20.40;10.37;;;1.30;99.90;;;;;;5023454;28;20120;-71
2023/01/23 08:12:04;;;;;;;21.90;11.00;;;1.30;99.90;;;;;;5004470;28;20045;-71
2023/01/23 08:14:29;;;;;;;22.77;11.18;;;1.40;99.90;;;;;;5012795;28;20037;-71
2023/01/23 08:16:55;;;;;;;20.53;10.80;;;1.40;99.90;;;;;;4992503;28;20125;-71
2023/01/23 08:19:24;;;;;;;23.58;10.80;;;1.40;99.90;;;;;;5000218;28;20052;-71
2023/01/23 08:21:50;;;;;;;18.33;10.18;;;1.50;99.90;;;;;;5019737;28;20045;-71
2023/01/23 08:24:15;;;;;;;23.17;11.27;;;1.50;99.90;;;;;;5019669;28;20148;-71
2023/01/23 08:26:42;;;;;;;19.87;10.30;;;1.50;99.90;;;;;;5017581;28;20057;-71
2023/01/23 08:29:08;;;;;;;20.27;11.18;;;1.60;99.90;;;;;;5020021;28;20034;-71
2023/01/23 08:31:34;;;;;;;23.02;11.00;;;1.60;99.90;;;;;;5020665;28;20052;-71
2023/01/23 08:34:00;;;;;;;21.40;11.45;;;1.60;99.90;;;;;;5001540;28;20050;-71
2023/01/23 08:36:26;;;;;;;18.90;10.33;;;1.60;99.90;;;;;;5018082;28;20705;-71
2023/01/23 08:38:52;;;;;;;19.90;10.67;;;1.60;99.90;;;;;;5020074;28;20121;-71
2023/01/23 08:41:17;;;;;;;19.77;10.53;;;1.70;99.90;;;;;;5018265;28;20037;-71
2023/01/23 08:43:43;;;;;;;19.63;10.17;;;1.70;99.90;;;;;;5021320;28;20137;-71
2023/01/23 08:46:10;;;;;;;19.57;10.87;;;1.70;99.90;;;;;;5004015;28;20041;-71
2023/01/23 08:48:36;;;;;;;18.77;10.25;;;1.70;99.90;;;;;;5018870;28;20050;-71
2023/01/23 08:51:05;;;;;;;18.35;11.15;;;1.70;99.90;;;;;;5004972;28;20125;-71
2023/01/23 08:53:32;;;;;;;18.60;10.88;;;1.80;99.90;;;;;;5020422;28;20068;-71
2023/01/23 08:55:59;;;;;;;18.00;10.88;;;1.80;99.90;;;;;;5020241;28;20144;-71
2023/01/23 08:58:26;;;;;;;21.40;11.90;;;1.90;99.90;;;;;;5014452;28;20038;-71
2023/01/23 09:00:51;;;;;;;21.08;11.48;;;1.90;99.90;;;;;;5020725;28;20045;-71
2023/01/23 09:03:17;;;;;;;19.13;11.60;;;1.90;99.90;;;;;;5004861;28;20434;-71
2023/01/23 09:05:43;;;;;;;19.73;11.27;;;2.00;99.90;;;;;;5020048;28;20360;-71
2023/01/23 09:08:08;;;;;;;21.67;10.93;;;1.90;99.90;;;;;;5020951;28;20479;-71
2023/01/23 09:10:35;;;;;;;17.63;10.83;;;2.00;99.90;;;;;;5001888;28;20404;-71
2023/01/23 09:13:01;;;;;;;17.63;10.38;;;2.00;99.90;;;;;;5019977;28;20052;-71
2023/01/23 09:15:27;;;;;;;17.30;10.00;;;2.10;99.90;;;;;;5004561;28;20034;-72
2023/01/23 09:17:52;;;;;;;20.80;10.87;;;2.10;99.90;;;;;;5020624;28;20073;-71
2023/01/23 09:20:18;;;;;;;17.77;9.63;;;2.10;99.90;;;;;;5020685;28;20438;-71
2023/01/23 09:22:44;;;;;;;17.80;10.13;;;2.10;99.90;;;;;;5005190;28;20034;-71
2023/01/23 09:25:11;;;;;;;18.42;11.10;;;2.10;99.90;;;;;;4988988;28;20038;-71
2023/01/23 09:27:36;;;;;;;15.98;9.75;;;2.10;99.90;;;;;;5020753;28;20124;-71
2023/01/23 09:30:03;;;;;;;18.43;10.10;;;2.20;99.90;;;;;;5020982;28;20092;-71
2023/01/23 09:32:28;;;;;;;18.27;10.82;;;2.20;99.90;;;;;;5020627;28;20579;-71
2023/01/23 09:34:54;;;;;;;19.80;10.27;;;2.20;99.90;;;;;;5021141;28;20050;-71
2023/01/23 09:37:20;;;;;;;22.07;10.30;;;2.20;99.90;;;;;;5020413;28;20037;-71
2023/01/23 09:39:46;;;;;;;20.47;10.93;;;2.20;99.90;;;;;;5002439;28;20035;-72
2023/01/23 09:42:21;;;;;;;16.20;10.40;;;2.20;99.90;;;;;;5018761;28;20121;-72
2023/01/23 09:45:01;;;;;;;21.83;9.82;;;2.20;99.90;;;;;;4999920;28;20069;-72
2023/01/23 09:47:56;;;;;;;16.90;9.80;;;2.30;99.90;;;;;;5019956;28;20046;-71
2023/01/23 09:50:29;;;;;;;20.67;10.18;;;2.30;99.90;;;;;;5004292;28;20112;-71
2023/01/23 09:53:07;;;;;;;18.08;10.30;;;2.30;99.90;;;;;;5022092;28;20131;-71
2023/01/23 09:55:49;;;;;;;15.20;9.90;;;2.30;99.90;;;;;;5018589;28;20160;-71
2023/01/23 09:58:27;;;;;;;19.67;10.80;;;2.40;99.90;;;;;;5022201;28;20088;-72
2023/01/23 10:00:53;;;;;;;17.60;9.50;;;2.40;99.90;;;;;;5021481;28;20185;-72
2023/01/23 10:03:24;;;;;;;13.87;9.13;;;2.40;99.90;;;;;;4996743;28;20038;-72
2023/01/23 10:06:12;;;;;;;17.90;9.85;;;2.50;99.90;;;;;;5019828;28;20049;-72
2023/01/23 10:09:08;;;;;;;15.82;9.57;;;2.50;99.90;;;;;;5021428;28;20962;-72
2023/01/23 10:11:41;;;;;;;15.68;8.98;;;2.50;99.90;;;;;;5002840;28;20046;-71
2023/01/23 10:14:24;;;;;;;16.60;9.02;;;2.50;99.90;;;;;;5003789;28;20045;-71
2023/01/23 10:17:06;;;;;;;14.98;8.85;;;2.60;99.90;;;;;;5017337;28;20046;-71
2023/01/23 10:20:24;;;;;;;15.85;9.20;;;2.60;99.90;;;;;;5021805;28;20597;-71
2023/01/23 10:22:56;;;;;;;16.98;9.23;;;2.60;99.90;;;;;;4991233;28;20037;-71
2023/01/23 10:25:26;;;;;;;13.73;8.88;;;2.60;99.90;;;;;;5020396;28;20045;-71
2023/01/23 10:27:57;;;;;;;15.32;9.40;;;2.70;99.90;;;;;;5022419;28;20037;-71
2023/01/23 10:30:32;;;;;;;12.98;8.40;;;2.70;99.90;;;;;;5022013;28;20049;-71
2023/01/23 10:33:11;;;;;;;15.75;9.10;;;2.80;99.90;;;;;;5018262;28;20046;-72
2023/01/23 10:35:49;;;;;;;14.60;7.93;;;2.80;99.90;;;;;;5020586;28;20022;-72
2023/01/23 10:38:40;;;;;;;16.13;8.25;;;2.80;99.90;;;;;;5020064;28;20058;-71
2023/01/23 10:41:14;;;;;;;15.27;8.13;;;2.90;99.90;;;;;;5021133;28;20033;-71
2023/01/23 10:43:46;;;;;;;17.48;9.15;;;2.90;99.90;;;;;;5021587;28;20057;-71
2023/01/23 10:46:18;;;;;;;15.05;8.32;;;2.90;99.90;;;;;;5021599;28;20062;-71
2023/01/23 10:48:52;;;;;;;13.65;8.05;;;2.90;99.90;;;;;;5021210;28;20054;-71
2023/01/23 10:51:30;;;;;;;15.88;8.90;;;3.00;99.90;;;;;;5020816;28;20045;-71
2023/01/23 10:54:08;;;;;;;13.25;8.52;;;3.00;99.90;;;;;;5017622;28;20037;-71
2023/01/23 10:56:38;;;;;;;14.88;8.35;;;3.10;99.90;;;;;;5021169;28;20054;-71
2023/01/23 10:59:06;;;;;;;13.38;7.55;;;3.10;99.90;;;;;;5020599;28;20386;-71
2023/01/23 11:01:34;;;;;;;12.20;8.23;;;3.10;99.90;;;;;;5020770;28;20061;-71
2023/01/23 11:04:33;;;;;;;13.13;7.63;;;3.10;99.90;;;;;;5021227;28;20061;-71
2023/01/23 11:07:13;;;;;;;13.85;7.53;;;3.20;99.90;;;;;;5014770;28;20053;-71
2023/01/23 11:09:49;;;;;;;14.43;7.32;;;3.30;99.90;;;;;;5022207;28;20035;-71
2023/01/23 11:12:18;;;;;;;12.77;8.02;;;3.40;99.90;;;;;;5022149;28;20530;-71
2023/01/23 11:14:44;;;;;;;14.48;8.15;;;3.40;99.90;;;;;;5020256;28;20041;-71
2023/01/23 11:17:31;;;;;;;11.75;7.88;;;3.40;99.90;;;;;;5021069;28;20046;-71
2023/01/23 11:19:58;;;;;;;16.83;8.30;;;3.50;99.90;;;;;;5020720;28;20034;-72
2023/01/23 11:22:40;;;;;;;10.93;7.28;;;3.50;99.90;;;;;;5003505;28;20069;-72
2023/01/23 11:25:40;;;;;;;12.13;8.18;;;3.60;99.90;;;;;;5004006;28;20140;-72
2023/01/23 11:28:33;;;;;;;11.82;7.95;;;3.60;99.90;;;;;;5015515;28;20042;-72
2023/01/23 11:31:18;;;;;;;11.85;6.88;;;3.70;99.90;;;;;;5014182;28;20049;-72
2023/01/23 11:34:08;;;;;;;12.00;7.38;;;3.80;99.90;;;;;;5019713;28;20044;-72
2023/01/23 11:36:57;;;;;;;11.07;7.05;;;3.80;99.90;;;;;;5020134;28;20038;-72
2023/01/23 11:39:41;;;;;;;11.88;7.50;;;3.90;99.90;;;;;;5019284;28;20038;-72
2023/01/23 11:42:11;;;;;;;9.88;6.43;;;4.00;99.90;;;;;;5017199;28;20481;-72
2023/01/23 11:44:39;;;;;;;12.90;7.03;;;4.00;99.90;;;;;;5001523;28;20096;-72
2023/01/23 11:47:31;;;;;;;13.35;6.85;;;4.00;99.90;;;;;;5017819;28;20375;-72
2023/01/23 11:50:24;;;;;;;9.35;5.90;;;4.10;99.90;;;;;;5016395;28;20049;-72
2023/01/23 11:53:11;;;;;;;9.85;6.53;;;4.10;99.90;;;;;;5000664;28;20409;-72
2023/01/23 11:56:09;;;;;;;9.55;5.88;;;4.10;99.90;;;;;;5015826;28;20037;-72
2023/01/23 11:59:02;;;;;;;7.22;5.25;;;4.10;99.90;;;;;;5011048;28;20037;-72
2023/01/23 12:01:49;;;;;;;6.68;4.13;;;4.10;99.90;;;;;;5014542;28;20133;-72
2023/01/23 12:04:38;;;;;;;5.93;4.05;;;4.10;99.90;;;;;;5014995;28;20077;-72
2023/01/23 12:07:23;;;;;;;8.25;4.82;;;4.10;99.90;;;;;;5013594;28;20046;-72
2023/01/23 12:10:10;;;;;;;5.90;4.68;;;4.10;99.90;;;;;;5024113;28;20505;-72
2023/01/23 12:12:58;;;;;;;5.38;4.05;;;4.10;99.90;;;;;;5013216;28;20045;-72
2023/01/23 12:15:39;;;;;;;5.38;4.15;;;4.10;99.90;;;;;;4996687;28;20659;-72
2023/01/23 12:18:30;;;;;;;5.07;3.83;;;4.10;99.90;;;;;;5011661;28;20591;-72
2023/01/23 12:21:06;;;;;;;4.97;3.47;;;4.10;99.90;;;;;;5012170;28;20121;-72
2023/01/23 12:23:46;;;;;;;3.45;2.67;;;4.00;99.90;;;;;;5012585;28;20240;-72
2023/01/23 12:26:17;;;;;;;3.53;2.38;;;4.00;99.90;;;;;;5007619;28;20568;-72
2023/01/23 12:28:59;;;;;;;2.78;2.30;;;3.90;99.90;;;;;;5011588;28;20092;-72
2023/01/23 12:31:43;;;;;;;4.00;2.65;;;3.80;99.90;;;;;;4995002;28;20069;-72
2023/01/23 12:34:34;;;;;;;2.90;2.30;;;3.80;99.90;;;;;;5003844;28;20049;-72
2023/01/23 12:37:29;;;;;;;3.75;2.45;;;3.80;99.90;;;;;;4994753;28;20096;-72
2023/01/23 12:40:02;;;;;;;3.75;2.70;;;3.80;99.90;;;;;;5005714;28;20537;-72
2023/01/23 12:42:40;;;;;;;4.60;3.05;;;3.80;99.90;;;;;;5008876;28;20529;-72
2023/01/23 12:45:26;;;;;;;2.95;2.50;;;3.80;99.90;;;;;;5010961;28;20061;-72
2023/01/23 12:48:23;;;;;;;4.15;2.83;;;3.80;99.90;;;;;;4994497;28;20467;-72
2023/01/23 12:51:00;;;;;;;3.53;3.00;;;3.80;99.90;;;;;;4991971;28;20042;-72
2023/01/23 12:53:31;;;;;;;4.72;2.92;;;3.70;99.90;;;;;;5010712;28;20077;-72
2023/01/23 12:56:02;;;;;;;3.88;2.70;;;3.70;99.90;;;;;;4994199;28;20042;-72
2023/01/23 12:58:35;;;;;;;3.40;2.90;;;3.60;99.90;;;;;;5004942;28;20133;-72
2023/01/23 13:01:04;;;;;;;3.78;2.85;;;3.70;99.90;;;;;;5010085;28;20042;-72
2023/01/23 13:04:01;;;;;;;3.35;2.28;;;3.60;99.90;;;;;;5010309;28;20042;-72
2023/01/23 13:07:04;;;;;;;3.65;2.78;;;3.60;99.90;;;;;;5010614;28;20120;-72
2023/01/23 13:10:09;;;;;;;3.88;3.00;;;3.50;99.90;;;;;;5009549;28;20061;-72